Time;durP1;ratioP1;P1;durP2;ratioP2;P2;SDS_P1;SDS_P2;PMS_P1;PMS_P2;Temp;Humidity;BMP_temperature;BMP_pressure;BME280_temperature;BME280_humidity;BME280_pressure;Samples;Min_cycle;Max_cycle;Signal;HPM_P1;HPM_P2
2023/01/02 00:00:05;;;;;;;;;15.00;14.00;;;;;;;;114828;1206;24990;-66
2023/01/02 00:02:54;;;;;;;;;14.00;12.00;;;;;;;;114692;1206;25329;-66
2023/01/02 00:05:22;;;;;;;;;18.00;14.50;;;;;;;;114786;1204;24702;-66
2023/01/02 00:07:51;;;;;;;;;14.50;12.00;;;;;;;;114758;1206;25536;-65
2023/01/02 00:10:19;;;;;;;;;17.00;16.50;;;;;;;;114746;1206;25092;-65
2023/01/02 00:12:48;;;;;;;;;17.00;14.50;;;;;;;;114831;1210;25483;-65
2023/01/02 00:15:17;;;;;;;;;17.50;17.00;;;;;;;;114800;1206;25436;-64
2023/01/02 00:17:45;;;;;;;;;19.50;14.50;;;;;;;;114845;1211;26331;-65
2023/01/02 00:20:14;;;;;;;;;18.00;15.50;;;;;;;;114817;1194;24892;-65
2023/01/02 00:22:42;;;;;;;;;18.33;15.00;;;;;;;;114637;1209;24973;-65
2023/01/02 00:25:11;;;;;;;;;17.00;14.00;;;;;;;;114760;1199;24910;-73
2023/01/02 00:27:39;;;;;;;;;17.00;16.00;;;;;;;;114803;1209;25408;-73
2023/01/02 00:30:09;;;;;;;;;19.00;16.00;;;;;;;;114776;1209;25160;-75
2023/01/02 00:32:37;;;;;;;;;20.50;16.50;;;;;;;;114732;1202;25136;-65
2023/01/02 00:35:06;;;;;;;;;19.50;16.50;;;;;;;;114761;1199;24798;-64
2023/01/02 00:37:35;;;;;;;;;16.33;14.67;;;;;;;;114744;1206;24823;-65
2023/01/02 00:40:04;;;;;;;;;16.50;14.00;;;;;;;;114691;1209;25167;-66
2023/01/02 00:42:32;;;;;;;;;21.50;16.50;;;;;;;;114839;1206;25669;-65
2023/01/02 00:45:01;;;;;;;;;17.00;17.00;;;;;;;;114773;1209;24924;-66
2023/01/02 00:47:29;;;;;;;;;18.50;16.00;;;;;;;;114797;1203;24840;-66
2023/01/02 00:49:57;;;;;;;;;18.00;14.00;;;;;;;;114783;1209;24671;-65
2023/01/02 00:52:26;;;;;;;;;13.33;12.00;;;;;;;;114766;1205;25349;-64
2023/01/02 00:54:54;;;;;;;;;9.50;8.50;;;;;;;;114742;1209;24961;-63
2023/01/02 00:57:23;;;;;;;;;16.33;14.67;;;;;;;;114812;1206;25634;-64
2023/01/02 00:59:52;;;;;;;;;15.00;11.00;;;;;;;;114748;1203;25437;-63
2023/01/02 01:02:21;;;;;;;;;17.00;13.50;;;;;;;;114793;1206;25025;-66
2023/01/02 01:04:50;;;;;;;;;15.00;14.00;;;;;;;;114725;1200;25222;-66
2023/01/02 01:07:18;;;;;;;;;16.33;14.33;;;;;;;;114752;1209;25611;-66
2023/01/02 01:09:46;;;;;;;;;12.00;12.00;;;;;;;;114784;1207;25041;-66
2023/01/02 01:12:15;;;;;;;;;17.00;14.00;;;;;;;;114788;1203;26296;-65
2023/01/02 01:14:43;;;;;;;;;13.00;11.50;;;;;;;;114765;1198;24955;-66
2023/01/02 01:17:12;;;;;;;;;16.00;12.00;;;;;;;;114814;1196;25392;-66
2023/01/02 01:19:40;;;;;;;;;16.00;16.00;;;;;;;;114760;1209;25165;-66
2023/01/02 01:22:09;;;;;;;;;16.00;10.00;;;;;;;;114769;1200;26421;-66
2023/01/02 01:24:37;;;;;;;;;13.00;12.50;;;;;;;;114720;1197;24780;-66
2023/01/02 01:27:06;;;;;;;;;13.00;11.00;;;;;;;;114804;1206;24777;-67
2023/01/02 01:29:34;;;;;;;;;11.50;11.00;;;;;;;;114811;1209;25265;-66
2023/01/02 01:32:03;;;;;;;;;15.50;14.00;;;;;;;;114779;1197;24946;-66
2023/01/02 01:34:32;;;;;;;;;18.00;16.00;;;;;;;;114790;1199;25109;-66
2023/01/02 01:37:00;;;;;;;;;15.50;13.50;;;;;;;;114761;1204;25436;-65
2023/01/02 01:39:29;;;;;;;;;14.50;14.00;;;;;;;;114755;1203;25336;-65
2023/01/02 01:42:01;;;;;;;;;15.00;14.00;;;;;;;;114795;1206;25539;-63
2023/01/02 01:44:48;;;;;;;;;15.67;14.33;;;;;;;;114808;1205;25307;-64
2023/01/02 01:47:22;;;;;;;;;18.50;15.50;;;;;;;;114808;1204;25618;-63
2023/01/02 01:49:58;;;;;;;;;16.50;14.00;;;;;;;;114789;1200;25561;-64
2023/01/02 01:52:35;;;;;;;;;8.00;8.00;;;;;;;;114798;1209;25658;-63
2023/01/02 01:55:07;;;;;;;;;17.00;14.00;;;;;;;;114786;1199;25358;-63
2023/01/02 01:57:40;;;;;;;;;14.00;13.00;;;;;;;;114792;1204;25497;-63
2023/01/02 02:00:09;;;;;;;;;17.00;13.00;;;;;;;;114806;1210;24697;-66
2023/01/02 02:02:41;;;;;;;;;13.00;10.33;;;;;;;;114785;1205;25521;-66
2023/01/02 02:05:14;;;;;;;;;15.00;15.00;;;;;;;;114824;1201;25102;-66
2023/01/02 02:07:56;;;;;;;;;13.75;10.00;;;;;;;;114815;1206;25133;-66
2023/01/02 02:10:24;;;;;;;;;16.00;16.00;;;;;;;;114796;1200;25429;-66
2023/01/02 02:12:52;;;;;;;;;15.00;14.00;;;;;;;;114810;1202;25227;-66
2023/01/02 02:15:23;;;;;;;;;;;;;;;;;;114825;1209;25231;-67
2023/01/02 02:17:59;;;;;;;;;13.00;13.00;;;;;;;;114771;1211;25794;-66
2023/01/02 02:20:43;;;;;;;;;13.00;10.50;;;;;;;;114760;1209;24905;-66
2023/01/02 02:23:11;;;;;;;;;16.00;9.00;;;;;;;;114742;1205;24772;-66
2023/01/02 02:25:54;;;;;;;;;15.00;15.00;;;;;;;;114793;1209;25577;-65
2023/01/02 02:29:00;;;;;;;;;16.50;12.00;;;;;;;;114739;1200;25104;-65
2023/01/02 02:31:57;;;;;;;;;14.00;14.00;;;;;;;;114730;1206;25322;-65
2023/01/02 02:34:26;;;;;;;;;14.33;12.00;;;;;;;;114809;1203;24944;-66
2023/01/02 02:37:17;;;;;;;;;11.00;10.00;;;;;;;;114788;1206;25603;-66
2023/01/02 02:40:09;;;;;;;;;11.00;11.00;;;;;;;;114803;1196;25503;-66
2023/01/02 02:43:06;;;;;;;;;15.00;14.00;;;;;;;;114778;1205;25155;-66
2023/01/02 02:46:02;;;;;;;;;11.00;10.00;;;;;;;;114777;1198;25558;-66
2023/01/02 02:48:54;;;;;;;;;15.50;14.50;;;;;;;;114683;1204;25440;-67
2023/01/02 02:55:27;;;;;;;;;;;;;;;;;;115781;1182;24909;-78
2023/01/02 02:57:57;;;;;;;;;18.00;15.00;;;;;;;;114669;1209;25206;-73
2023/01/02 03:00:26;;;;;;;;;14.00;14.00;;;;;;;;114631;1207;25644;-72
2023/01/02 03:02:54;;;;;;;;;13.00;11.00;;;;;;;;114720;1206;25000;-72
2023/01/02 03:05:40;;;;;;;;;12.00;12.00;;;;;;;;114762;1204;25036;-72
2023/01/02 03:08:40;;;;;;;;;14.00;12.00;;;;;;;;114733;1197;24991;-72
2023/01/02 03:11:10;;;;;;;;;16.50;13.50;;;;;;;;114724;1206;25231;-73
2023/01/02 03:14:01;;;;;;;;;15.50;14.50;;;;;;;;114706;1206;25662;-71
2023/01/02 03:16:36;;;;;;;;;14.50;13.50;;;;;;;;114721;1206;26369;-69
2023/01/02 03:19:29;;;;;;;;;15.00;15.00;;;;;;;;114750;1211;26388;-71
2023/01/02 03:22:02;;;;;;;;;15.00;14.00;;;;;;;;114707;1206;25053;-70
2023/01/02 03:24:32;;;;;;;;;12.33;9.33;;;;;;;;114690;1206;25328;-71
2023/01/02 03:27:09;;;;;;;;;;;;;;;;;;114720;1211;25470;-71
2023/01/02 03:29:53;;;;;;;;;18.00;15.00;;;;;;;;114680;1206;25467;-71
2023/01/02 03:32:27;;;;;;;;;16.00;13.00;;;;;;;;114720;1199;24709;-74
2023/01/02 03:34:57;;;;;;;;;8.00;8.00;;;;;;;;114662;1202;25449;-77
2023/01/02 03:37:29;;;;;;;;;21.50;12.00;;;;;;;;114683;1203;25183;-73
2023/01/02 03:39:58;;;;;;;;;;;;;;;;;;114681;1207;24991;-73
2023/01/02 03:42:27;;;;;;;;;;;;;;;;;;114710;1202;25843;-66
2023/01/02 03:45:06;;;;;;;;;14.67;12.67;;;;;;;;114692;1203;25152;-70
2023/01/02 03:47:41;;;;;;;;;16.00;16.00;;;;;;;;114662;1202;24777;-70
2023/01/02 03:50:32;;;;;;;;;7.00;7.00;;;;;;;;114663;1208;24699;-70
2023/01/02 03:53:02;;;;;;;;;11.00;10.00;;;;;;;;114693;1202;25553;-70
2023/01/02 03:55:33;;;;;;;;;15.00;11.00;;;;;;;;114739;1204;25525;-70
2023/01/02 03:58:51;;;;;;;;;11.50;9.50;;;;;;;;114681;1203;24900;-70
2023/01/02 04:01:39;;;;;;;;;9.50;8.50;;;;;;;;114399;1207;25480;-69
2023/01/02 04:04:26;;;;;;;;;13.00;10.50;;;;;;;;114667;1205;24937;-70
2023/01/02 04:07:00;;;;;;;;;12.50;9.00;;;;;;;;114698;1208;24761;-70
2023/01/02 04:09:31;;;;;;;;;13.50;10.00;;;;;;;;114723;1201;24701;-69
2023/01/02 04:12:06;;;;;;;;;13.33;11.00;;;;;;;;114668;1203;24957;-69
2023/01/02 04:14:43;;;;;;;;;13.50;11.50;;;;;;;;114678;1211;24868;-70
2023/01/02 04:17:14;;;;;;;;;15.00;10.00;;;;;;;;114700;1210;25110;-70
2023/01/02 04:19:51;;;;;;;;;11.00;10.00;;;;;;;;114732;1199;25358;-70
2023/01/02 04:22:29;;;;;;;;;13.00;10.00;;;;;;;;114692;1203;25611;-69
2023/01/02 04:25:10;;;;;;;;;14.00;11.00;;;;;;;;114658;1200;25400;-69
2023/01/02 04:27:48;;;;;;;;;;;;;;;;;;114698;1203;25302;-69
2023/01/02 04:30:16;;;;;;;;;9.00;8.00;;;;;;;;114717;1207;25303;-69
2023/01/02 04:32:46;;;;;;;;;11.50;10.00;;;;;;;;114643;1207;25010;-69
2023/01/02 04:35:18;;;;;;;;;9.00;9.00;;;;;;;;114634;1197;24786;-69
2023/01/02 04:37:47;;;;;;;;;10.00;10.00;;;;;;;;114673;1202;25740;-68
2023/01/02 04:40:22;;;;;;;;;11.00;11.00;;;;;;;;114683;1203;24960;-69
2023/01/02 04:42:51;;;;;;;;;9.50;9.00;;;;;;;;114702;1203;25002;-68
2023/01/02 04:45:20;;;;;;;;;10.00;10.00;;;;;;;;114669;1207;24958;-71
2023/01/02 04:47:49;;;;;;;;;10.00;9.00;;;;;;;;114692;1211;25073;-68
2023/01/02 04:50:18;;;;;;;;;7.00;5.50;;;;;;;;114726;1199;25241;-69
2023/01/02 04:52:46;;;;;;;;;12.00;10.00;;;;;;;;114717;1211;25606;-69
2023/01/02 04:55:15;;;;;;;;;11.00;10.00;;;;;;;;114644;1206;25609;-74
2023/01/02 04:57:43;;;;;;;;;13.50;11.00;;;;;;;;114635;1198;25554;-73
2023/01/02 05:00:12;;;;;;;;;16.67;12.33;;;;;;;;114612;1206;25411;-69
2023/01/02 05:02:40;;;;;;;;;11.00;11.00;;;;;;;;114703;1202;25400;-67
2023/01/02 05:05:09;;;;;;;;;8.00;6.00;;;;;;;;114709;1205;25603;-68
2023/01/02 05:07:38;;;;;;;;;9.00;8.00;;;;;;;;114721;1207;24816;-72
2023/01/02 05:10:07;;;;;;;;;8.00;8.00;;;;;;;;114627;1211;24902;-70
2023/01/02 05:12:36;;;;;;;;;10.00;8.00;;;;;;;;114729;1203;25672;-68
2023/01/02 05:15:07;;;;;;;;;21.00;17.50;;;;;;;;114709;1206;25080;-69
2023/01/02 05:17:36;;;;;;;;;18.00;15.00;;;;;;;;114680;1211;24896;-67
2023/01/02 05:20:07;;;;;;;;;14.00;12.00;;;;;;;;114583;1206;25257;-67
2023/01/02 05:25:31;;;;;;;;;13.00;10.33;;;;;;;;114646;1200;24874;-63
2023/01/02 05:28:01;;;;;;;;;9.00;9.00;;;;;;;;114589;1198;25234;-69
2023/01/02 05:30:30;;;;;;;;;11.00;9.00;;;;;;;;114645;1210;25567;-67
2023/01/02 05:32:58;;;;;;;;;13.00;12.00;;;;;;;;114615;1203;25276;-69
2023/01/02 05:35:27;;;;;;;;;13.00;12.00;;;;;;;;114662;1211;25211;-74
2023/01/02 05:38:00;;;;;;;;;14.00;11.00;;;;;;;;114588;1203;25511;-69
2023/01/02 05:40:29;;;;;;;;;;;;;;;;;;114657;1206;24744;-66
2023/01/02 05:42:58;;;;;;;;;18.00;12.00;;;;;;;;114615;1207;25374;-67
2023/01/02 05:45:27;;;;;;;;;12.00;11.50;;;;;;;;116429;1210;25620;-65
2023/01/02 05:47:55;;;;;;;;;16.00;13.00;;;;;;;;114826;1203;24888;-69
2023/01/02 05:50:24;;;;;;;;;10.00;10.00;;;;;;;;114586;1202;25034;-76
2023/01/02 05:52:54;;;;;;;;;14.50;12.50;;;;;;;;115325;1206;25569;-65
2023/01/02 05:55:22;;;;;;;;;15.00;12.00;;;;;;;;114603;1206;25551;-66
2023/01/02 05:57:54;;;;;;;;;16.50;13.00;;;;;;;;114611;1207;24751;-63
2023/01/02 06:00:22;;;;;;;;;19.00;14.00;;;;;;;;114668;1199;24765;-63
2023/01/02 06:02:51;;;;;;;;;19.00;14.00;;;;;;;;114603;1202;25508;-66
2023/01/02 06:05:20;;;;;;;;;13.00;10.00;;;;;;;;114658;1206;25225;-63
2023/01/02 06:07:48;;;;;;;;;14.00;13.00;;;;;;;;114609;1209;24881;-61
2023/01/02 06:10:17;;;;;;;;;12.00;12.00;;;;;;;;114605;1207;24845;-61
2023/01/02 06:12:45;;;;;;;;;14.00;11.00;;;;;;;;114606;1210;25186;-62
2023/01/02 06:15:14;;;;;;;;;12.00;10.00;;;;;;;;114610;1208;25024;-61
2023/01/02 06:17:42;;;;;;;;;12.50;12.00;;;;;;;;114658;1203;25093;-65
2023/01/02 06:20:11;;;;;;;;;17.50;10.50;;;;;;;;114708;1206;24900;-66
2023/01/02 06:22:39;;;;;;;;;16.50;13.50;;;;;;;;114669;1206;24865;-66
2023/01/02 06:25:08;;;;;;;;;18.00;13.00;;;;;;;;114609;1211;25524;-67
2023/01/02 06:27:37;;;;;;;;;19.00;15.00;;;;;;;;114647;1203;25199;-63
2023/01/02 06:30:06;;;;;;;;;19.00;17.00;;;;;;;;114685;1203;24959;-63
2023/01/02 06:32:34;;;;;;;;;19.00;14.00;;;;;;;;114621;1207;24669;-61
2023/01/02 06:35:03;;;;;;;;;24.00;17.00;;;;;;;;114675;1203;25664;-62
2023/01/02 06:37:31;;;;;;;;;15.00;13.00;;;;;;;;114660;1196;25543;-67
2023/01/02 06:40:00;;;;;;;;;13.50;13.50;;;;;;;;114644;1210;24934;-62
2023/01/02 06:42:28;;;;;;;;;18.00;15.00;;;;;;;;114741;1206;25517;-62
2023/01/02 06:44:57;;;;;;;;;;;;;;;;;;114648;1196;24830;-61
2023/01/02 06:47:25;;;;;;;;;14.00;12.50;;;;;;;;114601;1209;24757;-62
2023/01/02 06:49:54;;;;;;;;;13.00;10.00;;;;;;;;114656;1203;25452;-61
2023/01/02 06:52:22;;;;;;;;;14.00;13.00;;;;;;;;114647;1203;24850;-68
2023/01/02 06:54:51;;;;;;;;;16.50;14.50;;;;;;;;114743;1203;25450;-67
2023/01/02 06:57:20;;;;;;;;;14.00;13.00;;;;;;;;114715;1206;25483;-67
2023/01/02 06:59:48;;;;;;;;;14.00;12.00;;;;;;;;114682;1211;25486;-64
2023/01/02 07:02:16;;;;;;;;;14.00;14.00;;;;;;;;114632;1209;24770;-62
2023/01/02 07:04:45;;;;;;;;;15.00;15.00;;;;;;;;114637;1203;25380;-63
2023/01/02 07:07:14;;;;;;;;;16.33;13.33;;;;;;;;114714;1211;25496;-63
2023/01/02 07:09:43;;;;;;;;;17.00;17.00;;;;;;;;114640;1203;25241;-66
2023/01/02 07:12:13;;;;;;;;;14.00;12.00;;;;;;;;114625;1204;25606;-65
2023/01/02 07:14:42;;;;;;;;;14.50;13.00;;;;;;;;114655;1203;25630;-72
2023/01/02 07:17:11;;;;;;;;;20.00;12.00;;;;;;;;114688;1202;25018;-66
2023/01/02 07:19:41;;;;;;;;;11.50;9.50;;;;;;;;114710;1206;25676;-64
2023/01/02 07:22:15;;;;;;;;;17.33;11.67;;;;;;;;114708;1206;25400;-65
2023/01/02 07:24:44;;;;;;;;;12.50;12.00;;;;;;;;114725;1206;24966;-66
2023/01/02 07:27:14;;;;;;;;;15.00;15.00;;;;;;;;114640;1202;24777;-67
2023/01/02 07:29:43;;;;;;;;;17.00;13.50;;;;;;;;114641;1201;24965;-66
2023/01/02 07:32:12;;;;;;;;;13.00;13.00;;;;;;;;114699;1203;25361;-65
2023/01/02 07:34:41;;;;;;;;;17.00;13.00;;;;;;;;114645;1202;25872;-65
2023/01/02 07:37:10;;;;;;;;;15.00;13.00;;;;;;;;114695;1203;25261;-65
2023/01/02 07:39:39;;;;;;;;;22.00;19.00;;;;;;;;114693;1203;24876;-66
2023/01/02 07:42:09;;;;;;;;;16.00;14.00;;;;;;;;114688;1206;25362;-66
2023/01/02 07:44:37;;;;;;;;;17.00;12.00;;;;;;;;114805;1206;25207;-65
2023/01/02 07:47:06;;;;;;;;;16.00;14.00;;;;;;;;114702;1203;24760;-68
2023/01/02 07:49:34;;;;;;;;;14.00;13.00;;;;;;;;114631;1203;25620;-66
2023/01/02 07:52:03;;;;;;;;;13.50;10.50;;;;;;;;114684;1200;24925;-68
2023/01/02 07:54:31;;;;;;;;;17.00;13.00;;;;;;;;114637;1203;25492;-65
2023/01/02 07:57:00;;;;;;;;;16.50;13.50;;;;;;;;114723;1206;25578;-65
2023/01/02 07:59:28;;;;;;;;;16.50;15.50;;;;;;;;114679;1206;25322;-65
2023/01/02 08:01:57;;;;;;;;;16.00;15.00;;;;;;;;114590;1211;25414;-69
2023/01/02 08:04:25;;;;;;;;;17.00;16.00;;;;;;;;114602;1211;25509;-65
2023/01/02 08:06:54;;;;;;;;;17.00;12.00;;;;;;;;114609;1211;25512;-67
2023/01/02 08:09:23;;;;;;;;;19.00;15.00;;;;;;;;114569;1201;24800;-66
2023/01/02 08:11:52;;;;;;;;;19.00;14.00;;;;;;;;114637;1204;24701;-65
2023/01/02 08:14:22;;;;;;;;;;;;;;;;;;114563;1205;25461;-67
2023/01/02 08:16:51;;;;;;;;;16.00;13.50;;;;;;;;116521;1203;24730;-65
2023/01/02 08:19:19;;;;;;;;;16.50;13.50;;;;;;;;116527;1206;24812;-64
2023/01/02 08:21:48;;;;;;;;;20.00;15.33;;;;;;;;116822;1197;25581;-63
2023/01/02 08:24:16;;;;;;;;;10.00;10.00;;;;;;;;116513;1203;25629;-64
2023/01/02 08:26:44;;;;;;;;;15.00;12.00;;;;;;;;116524;1202;25718;-66
2023/01/02 08:29:12;;;;;;;;;12.50;12.00;;;;;;;;116514;1199;25970;-65
2023/01/02 08:31:41;;;;;;;;;16.33;13.67;;;;;;;;116752;1196;25055;-64
2023/01/02 08:34:13;;;;;;;;;11.00;9.00;;;;;;;;116426;1204;25208;-67
2023/01/02 08:36:42;;;;;;;;;9.00;9.00;;;;;;;;116490;1203;25326;-66
2023/01/02 08:39:10;;;;;;;;;15.00;12.00;;;;;;;;116505;1206;25073;-70
2023/01/02 08:41:39;;;;;;;;;19.50;14.00;;;;;;;;116535;1199;25348;-74
2023/01/02 08:44:08;;;;;;;;;15.00;10.00;;;;;;;;116468;1204;24804;-64
2023/01/02 08:46:36;;;;;;;;;13.00;11.50;;;;;;;;116484;1208;24755;-69
2023/01/02 08:49:11;;;;;;;;;9.00;8.00;;;;;;;;116395;1212;25565;-67
2023/01/02 08:51:39;;;;;;;;;12.00;11.00;;;;;;;;116481;1200;24734;-63
2023/01/02 08:54:08;;;;;;;;;16.50;10.00;;;;;;;;116529;1204;24687;-64
2023/01/02 08:56:37;;;;;;;;;10.00;9.00;;;;;;;;116384;1211;25104;-63
2023/01/02 08:59:10;;;;;;;;;11.00;11.00;;;;;;;;116536;1209;25525;-62
2023/01/02 09:01:39;;;;;;;;;14.00;11.00;;;;;;;;116508;1199;24862;-65
2023/01/02 09:04:09;;;;;;;;;13.00;12.00;;;;;;;;116404;1209;24814;-63
2023/01/02 09:06:42;;;;;;;;;13.00;11.00;;;;;;;;116526;1202;24763;-68
2023/01/02 09:09:13;;;;;;;;;15.00;13.50;;;;;;;;116435;1205;25157;-75
2023/01/02 09:11:48;;;;;;;;;13.00;12.00;;;;;;;;116528;1207;25411;-78
2023/01/02 09:14:20;;;;;;;;;14.00;14.00;;;;;;;;116798;1200;24782;-77
2023/01/02 09:16:50;;;;;;;;;16.00;13.00;;;;;;;;116478;1196;24762;-77
2023/01/02 09:19:18;;;;;;;;;15.00;12.00;;;;;;;;116430;1203;25018;-76
2023/01/02 09:21:47;;;;;;;;;10.00;10.00;;;;;;;;116429;1199;24954;-76
2023/01/02 09:24:16;;;;;;;;;19.00;15.00;;;;;;;;116503;1199;25203;-76
2023/01/02 09:26:45;;;;;;;;;17.00;15.00;;;;;;;;116470;1200;25130;-72
2023/01/02 09:29:14;;;;;;;;;18.00;15.00;;;;;;;;116555;1196;24852;-73
2023/01/02 09:31:42;;;;;;;;;19.50;16.00;;;;;;;;116476;1208;25200;-73
2023/01/02 09:34:11;;;;;;;;;17.00;14.00;;;;;;;;116515;1196;25306;-73
2023/01/02 09:36:40;;;;;;;;;19.00;15.00;;;;;;;;116518;1197;25667;-74
2023/01/02 09:39:09;;;;;;;;;21.00;16.00;;;;;;;;116596;1201;24857;-73
2023/01/02 09:41:39;;;;;;;;;15.50;13.50;;;;;;;;116477;1206;24658;-73
2023/01/02 09:44:17;;;;;;;;;17.00;15.00;;;;;;;;116446;1205;25467;-75
2023/01/02 09:46:51;;;;;;;;;15.00;15.00;;;;;;;;116566;1192;25252;-76
2023/01/02 09:49:23;;;;;;;;;19.00;16.00;;;;;;;;116571;1205;25095;-74
2023/01/02 09:51:51;;;;;;;;;22.00;16.50;;;;;;;;116439;1208;25614;-76
2023/01/02 09:54:30;;;;;;;;;15.00;15.00;;;;;;;;116415;1209;25643;-74
2023/01/02 09:57:16;;;;;;;;;15.00;15.00;;;;;;;;116516;1202;25083;-73
2023/01/02 09:59:53;;;;;;;;;21.50;18.50;;;;;;;;116545;1200;25362;-73
2023/01/02 10:02:49;;;;;;;;;26.50;19.75;;;;;;;;116481;1206;24738;-72
2023/01/02 10:05:39;;;;;;;;;23.00;19.00;;;;;;;;116498;1208;25093;-78
2023/01/02 10:08:32;;;;;;;;;22.50;21.50;;;;;;;;116505;1198;25248;-77
2023/01/02 10:11:12;;;;;;;;;22.50;20.00;;;;;;;;116503;1199;24839;-77
2023/01/02 10:13:48;;;;;;;;;24.00;21.50;;;;;;;;116410;1209;25049;-78
2023/01/02 10:16:46;;;;;;;;;27.00;26.00;;;;;;;;116517;1211;25069;-76
2023/01/02 10:19:20;;;;;;;;;30.00;26.00;;;;;;;;116512;1204;25538;-72
2023/01/02 10:21:51;;;;;;;;;38.00;28.00;;;;;;;;116434;1203;24697;-76
2023/01/02 10:24:36;;;;;;;;;32.00;30.00;;;;;;;;116484;1199;25163;-76
2023/01/02 10:27:12;;;;;;;;;33.00;27.00;;;;;;;;116506;1199;25622;-79
2023/01/02 10:30:03;;;;;;;;;32.00;28.00;;;;;;;;116484;1201;25319;-72
2023/01/02 10:32:34;;;;;;;;;30.00;28.00;;;;;;;;116463;1194;25108;-75
2023/01/02 10:35:06;;;;;;;;;36.00;28.00;;;;;;;;116528;1203;25386;-78
2023/01/02 10:37:35;;;;;;;;;32.00;23.00;;;;;;;;116550;1206;24881;-78
2023/01/02 10:40:04;;;;;;;;;35.50;31.00;;;;;;;;116478;1203;25311;-74
2023/01/02 10:42:33;;;;;;;;;30.00;29.50;;;;;;;;116544;1211;25173;-79
2023/01/02 10:45:03;;;;;;;;;31.00;27.00;;;;;;;;116525;1207;25146;-78
2023/01/02 10:47:37;;;;;;;;;33.33;25.00;;;;;;;;116550;1210;25401;-72
2023/01/02 10:50:13;;;;;;;;;31.00;27.50;;;;;;;;116517;1203;24969;-72
2023/01/02 10:52:49;;;;;;;;;33.50;31.00;;;;;;;;116475;1202;25183;-68
2023/01/02 10:55:37;;;;;;;;;33.00;27.00;;;;;;;;116564;1197;25293;-67
2023/01/02 10:58:22;;;;;;;;;36.00;33.00;;;;;;;;116494;1198;25695;-71
2023/01/02 11:01:02;;;;;;;;;33.00;26.50;;;;;;;;116406;1206;25557;-68
2023/01/02 11:03:30;;;;;;;;;28.00;26.00;;;;;;;;116430;1203;24953;-66
2023/01/02 11:06:00;;;;;;;;;38.00;28.00;;;;;;;;116594;1201;25417;-66
2023/01/02 11:08:57;;;;;;;;;30.50;26.00;;;;;;;;116510;1207;25467;-66
2023/01/02 11:11:26;;;;;;;;;36.00;28.00;;;;;;;;116383;1200;25151;-65
2023/01/02 11:14:07;;;;;;;;;33.00;24.50;;;;;;;;116411;1203;24726;-67
2023/01/02 11:16:40;;;;;;;;;30.50;24.50;;;;;;;;116535;1203;25425;-63
2023/01/02 11:19:17;;;;;;;;;26.50;21.50;;;;;;;;116380;1199;25020;-67
2023/01/02 11:21:51;;;;;;;;;31.00;26.00;;;;;;;;116411;1200;24813;-68
2023/01/02 11:24:24;;;;;;;;;30.00;26.50;;;;;;;;116551;1211;24718;-66
2023/01/02 11:26:53;;;;;;;;;24.00;22.00;;;;;;;;116507;1206;25002;-65
2023/01/02 11:29:33;;;;;;;;;23.50;23.50;;;;;;;;116781;1197;25111;-65
2023/01/02 11:32:03;;;;;;;;;29.50;20.50;;;;;;;;116443;1200;25443;-63
2023/01/02 11:34:38;;;;;;;;;28.00;26.00;;;;;;;;116554;1196;24954;-63
2023/01/02 11:37:15;;;;;;;;;23.00;20.00;;;;;;;;116486;1199;25481;-63
2023/01/02 11:39:59;;;;;;;;;24.00;22.50;;;;;;;;116776;1196;25523;-65
2023/01/02 11:45:30;;;;;;;;;29.50;28.00;;;;;;;;116507;1202;25220;-65
2023/01/02 11:48:04;;;;;;;;;28.00;28.00;;;;;;;;116501;1202;25059;-65
2023/01/02 11:50:36;;;;;;;;;25.00;22.50;;;;;;;;116424;1200;25340;-63
2023/01/02 11:53:08;;;;;;;;;24.00;21.00;;;;;;;;116467;1200;24810;-63
2023/01/02 11:55:37;;;;;;;;;;;;;;;;;;116544;1192;25332;-63
2023/01/02 11:58:29;;;;;;;;;31.33;27.00;;;;;;;;116467;1199;26230;-62
2023/01/02 12:01:30;;;;;;;;;26.00;23.00;;;;;;;;116451;1210;25224;-62
2023/01/02 12:03:59;;;;;;;;;26.33;23.67;;;;;;;;116524;1202;25155;-64
2023/01/02 12:06:48;;;;;;;;;29.50;25.00;;;;;;;;116573;1199;24913;-64
2023/01/02 12:10:01;;;;;;;;;33.50;26.00;;;;;;;;116528;1205;24782;-64
2023/01/02 12:12:32;;;;;;;;;31.00;27.00;;;;;;;;116428;1203;24997;-69
2023/01/02 12:15:06;;;;;;;;;30.00;26.50;;;;;;;;116505;1199;25309;-68
2023/01/02 12:17:50;;;;;;;;;25.00;25.00;;;;;;;;116578;1206;24816;-71
2023/01/02 12:20:28;;;;;;;;;20.00;20.00;;;;;;;;116431;1211;25646;-70
2023/01/02 12:23:03;;;;;;;;;34.00;27.50;;;;;;;;116397;1204;25211;-70
2023/01/02 12:25:48;;;;;;;;;28.00;26.00;;;;;;;;116410;1199;25213;-70
2023/01/02 12:28:36;;;;;;;;;32.00;26.00;;;;;;;;116425;1211;25530;-69
2023/01/02 12:31:42;;;;;;;;;36.00;26.00;;;;;;;;116468;1208;25516;-70
2023/01/02 12:34:50;;;;;;;;;26.50;23.50;;;;;;;;116541;1195;24886;-68
2023/01/02 12:37:31;;;;;;;;;28.00;25.00;;;;;;;;116472;1203;24763;-68
2023/01/02 12:40:08;;;;;;;;;28.00;25.00;;;;;;;;116561;1201;25106;-68
2023/01/02 12:42:55;;;;;;;;;29.33;25.67;;;;;;;;116532;1210;25546;-68
2023/01/02 12:45:30;;;;;;;;;21.00;20.00;;;;;;;;116553;1205;24798;-68
2023/01/02 12:48:23;;;;;;;;;34.00;26.00;;;;;;;;116514;1211;24988;-68
2023/01/02 12:51:23;;;;;;;;;18.50;18.00;;;;;;;;116503;1202;25770;-67
2023/01/02 12:54:03;;;;;;;;;33.00;29.00;;;;;;;;116474;1209;25581;-70
2023/01/02 12:56:58;;;;;;;;;24.00;22.00;;;;;;;;116491;1206;24893;-70
2023/01/02 12:59:44;;;;;;;;;27.00;23.50;;;;;;;;116461;1211;25480;-71
2023/01/02 13:02:33;;;;;;;;;25.50;22.50;;;;;;;;116514;1198;25464;-71
2023/01/02 13:05:07;;;;;;;;;32.00;24.00;;;;;;;;116361;1201;25351;-73
2023/01/02 13:07:38;;;;;;;;;31.50;22.00;;;;;;;;116498;1203;25302;-69
2023/01/02 13:10:14;;;;;;;;;30.00;24.50;;;;;;;;116573;1197;24953;-71
2023/01/02 13:12:42;;;;;;;;;;;;;;;;;;116555;1201;25249;-69
2023/01/02 13:15:30;;;;;;;;;29.50;25.00;;;;;;;;116559;1192;25507;-70
2023/01/02 13:18:05;;;;;;;;;31.00;24.00;;;;;;;;116530;1197;24772;-71
2023/01/02 13:20:44;;;;;;;;;30.50;27.00;;;;;;;;116584;1206;25540;-68
2023/01/02 13:23:25;;;;;;;;;35.50;25.00;;;;;;;;116441;1199;25088;-69
2023/01/02 13:26:01;;;;;;;;;32.00;26.50;;;;;;;;116525;1206;25036;-67
2023/01/02 13:28:29;;;;;;;;;26.50;23.50;;;;;;;;116518;1203;25307;-69
2023/01/02 13:31:01;;;;;;;;;30.00;26.00;;;;;;;;116508;1199;25393;-69
2023/01/02 13:33:50;;;;;;;;;30.00;27.00;;;;;;;;116505;1203;25569;-67
2023/01/02 13:36:22;;;;;;;;;27.50;25.50;;;;;;;;116542;1203;25480;-68
2023/01/02 13:39:11;;;;;;;;;32.00;22.00;;;;;;;;116505;1203;25022;-69
2023/01/02 13:44:39;;;;;;;;;31.00;27.00;;;;;;;;116445;1204;25805;-69
2023/01/02 13:47:37;;;;;;;;;24.00;22.50;;;;;;;;116500;1211;24840;-69
2023/01/02 13:50:05;;;;;;;;;27.50;20.50;;;;;;;;116426;1202;25634;-69
2023/01/02 13:52:34;;;;;;;;;23.00;20.00;;;;;;;;116529;1200;25627;-71
2023/01/02 13:55:32;;;;;;;;;28.00;25.00;;;;;;;;116531;1206;25639;-69
2023/01/02 13:58:21;;;;;;;;;19.00;18.00;;;;;;;;116457;1205;25678;-69
2023/01/02 14:00:52;;;;;;;;;28.00;24.00;;;;;;;;116547;1203;25160;-69
2023/01/02 14:03:22;;;;;;;;;26.33;24.00;;;;;;;;116535;1204;24775;-67
2023/01/02 14:06:00;;;;;;;;;27.50;25.00;;;;;;;;116527;1211;25178;-68
2023/01/02 14:08:36;;;;;;;;;32.00;21.00;;;;;;;;116488;1197;25432;-68
2023/01/02 14:11:07;;;;;;;;;26.50;22.50;;;;;;;;116524;1199;25048;-69
2023/01/02 14:13:48;;;;;;;;;30.00;22.50;;;;;;;;116541;1206;25272;-69
2023/01/02 14:16:22;;;;;;;;;27.50;24.50;;;;;;;;116400;1210;25046;-69
2023/01/02 14:19:12;;;;;;;;;25.00;23.50;;;;;;;;116548;1201;25687;-69
2023/01/02 14:21:49;;;;;;;;;22.50;21.00;;;;;;;;116496;1203;25472;-69
2023/01/02 14:24:27;;;;;;;;;30.50;22.50;;;;;;;;116502;1206;25365;-69
2023/01/02 14:27:04;;;;;;;;;23.50;21.00;;;;;;;;116479;1203;25143;-69
2023/01/02 14:29:41;;;;;;;;;22.50;20.00;;;;;;;;116413;1198;25529;-69
2023/01/02 14:32:46;;;;;;;;;23.00;22.00;;;;;;;;116455;1205;24853;-69
2023/01/02 14:35:21;;;;;;;;;25.67;23.00;;;;;;;;116427;1206;24797;-69
2023/01/02 14:37:54;;;;;;;;;21.00;20.00;;;;;;;;116499;1211;24980;-69
2023/01/02 14:40:23;;;;;;;;;25.00;22.00;;;;;;;;116497;1206;25627;-69
2023/01/02 14:45:51;;;;;;;;;19.00;18.00;;;;;;;;116431;1203;25088;-69
2023/01/02 14:48:34;;;;;;;;;24.00;22.00;;;;;;;;116432;1203;24867;-69
2023/01/02 14:51:10;;;;;;;;;27.00;26.00;;;;;;;;116397;1206;25566;-69
2023/01/02 14:53:52;;;;;;;;;22.00;20.00;;;;;;;;116818;1197;26290;-69
2023/01/02 14:56:24;;;;;;;;;27.00;21.00;;;;;;;;116434;1211;24715;-69
2023/01/02 14:58:53;;;;;;;;;24.00;22.00;;;;;;;;116477;1210;24731;-69
2023/01/02 15:01:23;;;;;;;;;16.00;15.00;;;;;;;;116480;1202;25030;-69
2023/01/02 15:04:17;;;;;;;;;25.50;21.50;;;;;;;;116400;1199;25479;-69